Time;durP1;ratioP1;P1;durP2;ratioP2;P2;SDS_P1;SDS_P2;PMS_P1;PMS_P2;Temp;Humidity;BMP_temperature;BMP_pressure;BME280_temperature;BME280_humidity;BME280_pressure;Samples;Min_cycle;Max_cycle;Signal;HPM_P1;HPM_P2
2021/01/14 00:01:03;;;;;;;11.10;1.95;;;;;;;8.01;57.91;101691.53;4933607;28;123869;-76
2021/01/14 00:03:30;;;;;;;14.68;2.03;;;;;;;7.99;57.80;101689.78;4924172;28;114051;-75
2021/01/14 00:06:08;;;;;;;7.38;1.60;;;;;;;8.02;57.03;101688.00;4942232;28;114963;-75
2021/01/14 00:08:35;;;;;;;9.00;1.50;;;;;;;7.97;57.34;101681.03;4933175;28;123850;-75
2021/01/14 00:11:02;;;;;;;8.38;1.48;;;;;;;7.95;56.53;101685.47;4923407;28;123776;-75
2021/01/14 00:13:29;;;;;;;14.10;1.70;;;;;;;7.92;56.09;101682.91;4926482;28;113292;-76
2021/01/14 00:15:55;;;;;;;11.50;2.00;;;;;;;7.89;56.32;101671.53;4919622;28;113496;-75
2021/01/14 00:18:22;;;;;;;13.38;1.60;;;;;;;7.88;56.60;101673.31;4933774;28;123601;-75
2021/01/14 00:20:49;;;;;;;11.35;1.55;;;;;;;7.88;56.33;101675.09;4941078;28;124006;-76
2021/01/14 00:23:15;;;;;;;11.85;1.98;;;;;;;7.89;56.37;101687.38;4915413;28;114040;-76
2021/01/14 00:25:42;;;;;;;10.73;1.75;;;;;;;7.88;56.44;101683.00;4933570;28;113864;-75
2021/01/14 00:28:09;;;;;;;8.15;1.55;;;;;;;7.90;56.75;101676.78;4915117;28;124250;-76
2021/01/14 00:30:36;;;;;;;8.75;1.90;;;;;;;7.92;56.63;101682.03;4916966;28;123519;-75
2021/01/14 00:33:02;;;;;;;7.40;1.85;;;;;;;7.92;56.74;101682.91;4936070;28;114098;-75
2021/01/14 00:35:31;;;;;;;9.32;2.03;;;;;;;7.93;56.87;101683.75;4935057;28;114160;-76
2021/01/14 00:37:59;;;;;;;8.50;1.80;;;;;;;7.93;56.60;101682.00;4950885;28;124333;-75
2021/01/14 00:40:28;;;;;;;10.60;1.83;;;;;;;7.91;56.28;101685.56;4935926;28;124424;-76
2021/01/14 00:43:08;;;;;;;12.40;2.00;;;;;;;7.88;56.73;101686.50;4898953;28;113119;-76
2021/01/14 00:45:36;;;;;;;13.57;1.80;;;;;;;7.87;56.43;101692.66;4940184;28;113116;-75
2021/01/14 00:48:04;;;;;;;11.00;1.88;;;;;;;7.86;56.52;101684.81;4915486;28;123820;-76
2021/01/14 00:50:31;;;;;;;11.43;1.80;;;;;;;7.85;56.01;101694.47;4915842;28;123085;-76
2021/01/14 00:52:58;;;;;;;9.00;1.63;;;;;;;7.80;55.99;101683.16;4939416;28;115462;-75
2021/01/14 00:55:25;;;;;;;8.52;1.50;;;;;;;7.80;55.92;101693.72;4916004;28;114983;-75
2021/01/14 00:57:53;;;;;;;8.45;1.73;;;;;;;7.77;56.21;101694.63;4949688;28;123669;-75
2021/01/14 01:00:21;;;;;;;10.52;1.50;;;;;;;7.74;55.60;101699.97;4933530;28;123444;-75
2021/01/14 01:02:52;;;;;;;13.25;1.80;;;;;;;7.74;55.89;101699.09;4921838;28;114811;-75
2021/01/14 01:05:20;;;;;;;6.63;1.30;;;;;;;7.71;56.21;101683.34;4917799;28;113656;-76
2021/01/14 01:07:53;;;;;;;9.13;1.40;;;;;;;7.73;55.88;101692.09;4934826;28;124126;-75
2021/01/14 01:10:20;;;;;;;13.18;1.40;;;;;;;7.72;55.44;101692.97;4927408;28;122774;-75
2021/01/14 01:12:51;;;;;;;8.32;1.70;;;;;;;7.68;55.63;101699.22;4935491;28;113759;-75
2021/01/14 01:15:18;;;;;;;12.25;1.42;;;;;;;7.65;55.89;101688.72;4926017;28;113927;-75
2021/01/14 01:17:44;;;;;;;10.60;1.67;;;;;;;7.64;55.49;101694.91;4936815;28;123542;-75
2021/01/14 01:20:11;;;;;;;8.85;1.58;;;;;;;7.64;55.55;101687.00;4935957;28;123659;-75
2021/01/14 01:22:38;;;;;;;7.47;1.65;;;;;;;7.62;55.92;101688.78;4942558;28;113581;-76
2021/01/14 01:25:05;;;;;;;8.95;1.50;;;;;;;7.60;55.76;101702.84;4942261;28;113782;-75
2021/01/14 01:27:32;;;;;;;6.93;1.55;;;;;;;7.60;55.50;101705.50;4920888;28;123200;-76
2021/01/14 01:29:58;;;;;;;10.95;1.38;;;;;;;7.57;55.37;101702.94;4928843;28;123024;-76
2021/01/14 01:32:25;;;;;;;6.32;1.60;;;;;;;7.55;55.72;101698.56;4937836;28;114810;-76
2021/01/14 01:34:51;;;;;;;12.13;1.70;;;;;;;7.52;55.51;101688.97;4920633;28;113914;-76
2021/01/14 01:37:18;;;;;;;12.68;1.73;;;;;;;7.53;55.14;101689.81;4953233;28;123974;-75
2021/01/14 01:39:46;;;;;;;8.57;1.85;;;;;;;7.51;55.38;101697.75;4955153;28;123242;-75
2021/01/14 01:42:12;;;;;;;4.72;1.20;;;;;;;7.50;55.14;101696.03;4943332;28;115778;-75
2021/01/14 01:44:39;;;;;;;6.95;1.55;;;;;;;7.49;55.06;101704.81;4944039;28;117419;-76
2021/01/14 01:47:06;;;;;;;7.30;1.15;;;;;;;7.45;55.20;101703.16;4954059;28;123675;-76
2021/01/14 01:49:34;;;;;;;7.22;1.25;;;;;;;7.43;54.94;101712.00;4936534;28;124442;-76
2021/01/14 01:52:03;;;;;;;7.50;1.50;;;;;;;7.40;55.04;101710.25;4932512;28;112578;-75
2021/01/14 01:54:32;;;;;;;10.02;1.20;;;;;;;7.37;55.24;101715.59;4943459;28;114144;-76
2021/01/14 01:57:01;;;;;;;10.43;1.67;;;;;;;7.35;54.89;101712.13;4923078;28;124603;-75
2021/01/14 01:59:30;;;;;;;11.98;1.80;;;;;;;7.31;54.99;101710.41;4921345;28;123103;-75
2021/01/14 02:01:58;;;;;;;7.55;1.38;;;;;;;7.29;55.15;101718.38;4922625;28;113305;-76
2021/01/14 02:04:24;;;;;;;8.98;1.52;;;;;;;7.25;55.05;101721.06;4920037;28;113535;-75
2021/01/14 02:07:02;;;;;;;7.45;1.60;;;;;;;7.22;55.22;101722.88;4939764;28;126220;-75
2021/01/14 02:09:29;;;;;;;7.75;1.40;;;;;;;7.20;55.17;101724.66;4921770;28;124176;-75
2021/01/14 02:12:04;;;;;;;8.63;1.30;;;;;;;7.17;55.18;101732.59;4923650;28;113266;-75
2021/01/14 02:14:34;;;;;;;7.63;1.42;;;;;;;7.15;55.15;101737.03;4938938;28;114024;-75
2021/01/14 02:17:00;;;;;;;9.60;1.65;;;;;;;7.13;55.24;101738.81;4924456;28;123133;-75
2021/01/14 02:19:36;;;;;;;11.18;1.42;;;;;;;7.13;55.17;101759.91;4937184;28;123905;-75
2021/01/14 02:22:11;;;;;;;7.90;1.30;;;;;;;7.10;55.32;101759.97;4920602;28;113728;-75
2021/01/14 02:25:02;;;;;;;10.95;1.77;;;;;;;7.09;55.43;101763.47;4912928;28;112868;-75
2021/01/14 02:27:29;;;;;;;7.43;1.73;;;;;;;7.08;55.07;101751.19;4917137;28;123744;-75
2021/01/14 02:29:58;;;;;;;9.55;1.52;;;;;;;7.07;55.12;101754.72;4932964;28;123670;-75
2021/01/14 02:32:24;;;;;;;8.85;1.80;;;;;;;7.06;55.47;101758.25;4935439;28;115198;-76
2021/01/14 02:34:51;;;;;;;7.43;1.70;;;;;;;7.05;55.31;101764.44;4939510;28;115471;-76
2021/01/14 02:37:18;;;;;;;9.63;1.40;;;;;;;7.04;55.16;101760.03;4901518;28;123887;-75
2021/01/14 02:39:45;;;;;;;7.00;1.63;;;;;;;7.04;55.06;101760.03;4921515;28;123364;-75
2021/01/14 02:42:12;;;;;;;6.88;1.20;;;;;;;7.04;55.50;101770.56;4916248;28;113716;-76
2021/01/14 02:44:38;;;;;;;7.53;1.45;;;;;;;7.02;55.31;101772.38;4935013;28;114520;-75
2021/01/14 02:47:07;;;;;;;12.38;1.67;;;;;;;7.02;55.20;101767.09;4935356;28;124150;-76
2021/01/14 02:49:42;;;;;;;11.80;1.67;;;;;;;7.00;55.21;101772.38;4932896;28;122804;-75
2021/01/14 02:52:11;;;;;;;6.50;1.17;;;;;;;7.01;55.20;101773.28;4921772;28;113569;-75
2021/01/14 02:54:39;;;;;;;5.72;1.60;;;;;;;7.00;55.25;101774.16;4948687;28;96759;-75
2021/01/14 02:57:08;;;;;;;9.00;1.88;;;;;;;6.99;55.20;101777.69;4934226;28;123564;-75
2021/01/14 02:59:34;;;;;;;8.90;1.25;;;;;;;6.99;55.22;101772.44;4932642;28;123722;-75
2021/01/14 03:02:01;;;;;;;7.53;1.58;;;;;;;6.98;55.24;101779.44;4927256;28;113786;-75
2021/01/14 03:04:27;;;;;;;8.25;1.48;;;;;;;6.97;55.07;101780.34;4934666;28;113916;-75
2021/01/14 03:06:54;;;;;;;7.20;1.70;;;;;;;6.97;55.14;101771.59;4935568;28;124276;-76
2021/01/14 03:09:21;;;;;;;7.95;1.65;;;;;;;6.96;55.22;101777.72;4933876;28;123804;-75
2021/01/14 03:11:47;;;;;;;8.57;1.98;;;;;;;6.95;55.15;101775.97;4936234;28;114685;-75
2021/01/14 03:14:14;;;;;;;6.95;1.30;;;;;;;6.93;54.91;101785.66;4937058;28;114109;-75
2021/01/14 03:16:40;;;;;;;8.50;1.48;;;;;;;6.92;54.78;101786.56;4939180;28;124316;-76
2021/01/14 03:19:07;;;;;;;5.60;1.33;;;;;;;6.90;54.90;101793.63;4933263;28;124223;-76
2021/01/14 03:21:34;;;;;;;8.05;1.73;;;;;;;6.90;54.90;101801.53;4924093;28;115279;-75
2021/01/14 03:24:00;;;;;;;9.48;1.58;;;;;;;6.87;54.97;101796.28;4920957;28;113534;-75
2021/01/14 03:26:27;;;;;;;7.63;1.25;;;;;;;6.82;54.87;101791.97;4923541;28;123673;-75
2021/01/14 03:28:53;;;;;;;6.43;1.67;;;;;;;6.81;55.03;101790.22;4944652;28;123655;-75
2021/01/14 03:31:20;;;;;;;11.93;1.60;;;;;;;6.78;54.75;101797.28;4942527;28;114217;-75
2021/01/14 03:33:49;;;;;;;4.13;1.30;;;;;;;6.74;54.90;101793.84;4923061;28;112768;-75
2021/01/14 03:36:17;;;;;;;6.13;1.48;;;;;;;6.72;55.22;101800.88;4932635;28;124454;-75
2021/01/14 03:38:45;;;;;;;7.38;1.73;;;;;;;6.69;54.94;101795.66;4941777;28;123639;-76
2021/01/14 03:41:13;;;;;;;7.05;1.35;;;;;;;6.67;55.31;101805.34;4914070;28;114158;-75
2021/01/14 03:43:40;;;;;;;9.55;1.58;;;;;;;6.65;54.94;101804.50;4916985;28;113076;-75
2021/01/14 03:46:17;;;;;;;6.75;1.38;;;;;;;6.61;55.00;101808.03;4934198;28;123991;-75
2021/01/14 03:48:45;;;;;;;6.20;1.55;;;;;;;6.61;55.25;101813.31;4934865;28;123901;-76
2021/01/14 03:51:22;;;;;;;8.20;1.27;;;;;;;6.58;55.18;101805.47;4937820;28;114773;-76
2021/01/14 03:53:50;;;;;;;4.22;1.05;;;;;;;6.56;55.08;101802.84;4941747;28;114059;-75
2021/01/14 03:56:17;;;;;;;7.25;1.20;;;;;;;6.55;55.18;101810.75;4941189;28;124514;-75
2021/01/14 03:58:44;;;;;;;8.80;1.63;;;;;;;6.53;55.15;101802.88;4927998;28;122900;-75
2021/01/14 04:01:11;;;;;;;7.35;1.30;;;;;;;6.52;55.45;101800.28;4944558;28;113362;-76
2021/01/14 04:03:40;;;;;;;6.10;1.90;;;;;;;6.50;55.30;101799.41;4927825;28;113125;-75
2021/01/14 04:06:07;;;;;;;12.15;1.50;;;;;;;6.49;55.49;101798.56;4923701;28;124365;-76
2021/01/14 04:08:34;;;;;;;7.85;1.50;;;;;;;6.48;55.28;101794.19;4931886;28;123806;-75
2021/01/14 04:11:03;;;;;;;8.15;1.20;;;;;;;6.47;55.39;101791.56;4929725;28;115538;-75
2021/01/14 04:13:30;;;;;;;6.70;1.33;;;;;;;6.46;55.38;101792.44;4933576;28;114603;-75
2021/01/14 04:15:57;;;;;;;9.75;1.63;;;;;;;6.45;55.30;101796.00;4919478;28;124168;-76
2021/01/14 04:18:24;;;;;;;6.75;1.40;;;;;;;6.43;55.19;101788.97;4936776;28;124428;-75
2021/01/14 04:20:51;;;;;;;9.10;1.70;;;;;;;6.43;55.20;101791.59;4928277;28;113997;-75
2021/01/14 04:23:18;;;;;;;4.82;1.20;;;;;;;6.41;55.48;101796.03;4945100;28;113980;-75
2021/01/14 04:25:45;;;;;;;11.15;1.58;;;;;;;6.39;55.39;101789.91;4947198;28;123769;-75
2021/01/14 04:28:11;;;;;;;8.77;1.60;;;;;;;6.38;55.12;101790.78;4922061;28;123682;-75
2021/01/14 04:30:38;;;;;;;7.40;1.50;;;;;;;6.37;55.10;101802.22;4935960;28;114327;-76
2021/01/14 04:33:11;;;;;;;3.90;1.25;;;;;;;6.35;55.21;101806.63;4927738;28;112816;-75
2021/01/14 04:35:46;;;;;;;6.13;1.15;;;;;;;6.34;55.38;101810.13;4923468;28;123456;-76
2021/01/14 04:38:14;;;;;;;4.80;1.30;;;;;;;6.32;55.25;101806.66;4941259;28;124045;-76
2021/01/14 04:40:45;;;;;;;10.32;1.73;;;;;;;6.31;55.48;101801.41;4908822;28;113677;-75
2021/01/14 04:43:14;;;;;;;5.85;1.30;;;;;;;6.29;55.34;101801.44;4937699;28;113347;-75
2021/01/14 04:45:42;;;;;;;6.03;1.50;;;;;;;6.28;55.35;101799.69;4934659;28;124221;-75
2021/01/14 04:48:12;;;;;;;9.20;1.25;;;;;;;6.25;55.32;101799.72;4937815;28;123806;-75
2021/01/14 04:50:39;;;;;;;5.65;1.50;;;;;;;6.26;55.43;101803.25;4942085;28;114006;-75
2021/01/14 04:53:07;;;;;;;10.98;1.90;;;;;;;6.24;55.13;101803.25;4918912;28;113909;-76
2021/01/14 04:55:45;;;;;;;8.00;1.38;;;;;;;6.24;55.21;101803.25;4926739;28;122564;-75
2021/01/14 04:58:17;;;;;;;5.60;1.33;;;;;;;6.24;55.29;101808.50;4938535;28;122211;-76
2021/01/14 05:00:49;;;;;;;7.28;1.33;;;;;;;6.23;55.29;101806.75;4941710;28;115142;-76
2021/01/14 05:03:24;;;;;;;6.13;1.60;;;;;;;6.22;54.97;101810.28;4914534;28;114558;-76
2021/01/14 05:05:52;;;;;;;9.27;1.52;;;;;;;6.22;54.86;101805.03;4935490;28;123796;-76
2021/01/14 05:08:30;;;;;;;4.38;1.20;;;;;;;6.21;54.86;101808.53;4917538;28;122688;-76
2021/01/14 05:10:57;;;;;;;4.82;1.33;;;;;;;6.22;54.97;101805.03;4940745;23;113319;-71
2021/01/14 05:13:27;;;;;;;4.22;1.38;;;;;;;6.21;55.07;101814.66;4938169;28;114085;-71
2021/01/14 05:15:54;;;;;;;8.93;1.25;;;;;;;6.24;55.22;101819.03;4926762;28;123017;-71
2021/01/14 05:18:21;;;;;;;6.57;1.60;;;;;;;6.25;55.20;101812.88;4935406;28;125877;-71
2021/01/14 05:20:48;;;;;;;8.30;1.35;;;;;;;6.26;54.82;101812.00;4938372;28;113673;-71
2021/01/14 05:23:19;;;;;;;5.65;1.50;;;;;;;6.26;54.78;101822.50;4935088;28;113633;-71
2021/01/14 05:25:52;;;;;;;5.90;1.45;;;;;;;6.27;55.24;101824.25;4909445;28;123203;-73
2021/01/14 05:28:21;;;;;;;6.07;1.25;;;;;;;6.27;55.06;101829.50;4938717;28;124411;-71
2021/01/14 05:30:48;;;;;;;10.90;1.55;;;;;;;6.27;54.83;101826.88;4940064;28;114670;-71
2021/01/14 05:33:17;;;;;;;6.05;1.25;;;;;;;6.27;54.58;101833.91;4917547;28;112696;-71
2021/01/14 05:35:49;;;;;;;6.68;1.13;;;;;;;6.26;54.66;101832.19;4935565;28;124814;-72
2021/01/14 05:38:29;;;;;;;7.43;1.33;;;;;;;6.22;54.66;101837.47;4933735;28;124146;-71
2021/01/14 05:41:11;;;;;;;8.52;1.75;;;;;;;6.22;54.87;101836.59;4936940;28;114389;-71
2021/01/14 05:43:52;;;;;;;5.25;1.23;;;;;;;6.21;54.78;101840.09;4919809;28;114035;-70
2021/01/14 05:46:30;;;;;;;6.18;1.55;;;;;;;6.22;54.83;101847.13;4930241;28;124020;-72
2021/01/14 05:49:03;;;;;;;6.75;1.30;;;;;;;6.20;55.14;101843.63;4941118;28;123946;-70
2021/01/14 05:51:31;;;;;;;10.13;1.75;;;;;;;6.19;55.04;101847.13;4935068;28;115225;-71
2021/01/14 05:54:13;;;;;;;7.78;1.70;;;;;;;6.18;55.13;101845.41;4937095;28;114625;-70
2021/01/14 05:56:50;;;;;;;5.43;1.48;;;;;;;6.17;55.16;101848.91;4935780;28;124248;-71
2021/01/14 05:59:19;;;;;;;8.02;1.67;;;;;;;6.17;55.04;101854.19;4937805;28;124050;-70
2021/01/14 06:01:57;;;;;;;5.63;1.58;;;;;;;6.15;55.15;101855.97;4940305;28;113611;-70
2021/01/14 06:04:25;;;;;;;6.43;1.30;;;;;;;6.15;54.80;101861.22;4935466;28;114285;-72
2021/01/14 06:06:57;;;;;;;8.10;1.80;;;;;;;6.15;55.08;101871.72;4905089;28;123366;-71
2021/01/14 06:09:23;;;;;;;9.50;1.55;;;;;;;6.13;55.21;101857.72;4936131;28;123868;-71
2021/01/14 06:12:12;;;;;;;7.15;1.42;;;;;;;6.10;55.19;101863.00;4937631;28;114680;-71
2021/01/14 06:14:39;;;;;;;7.68;1.60;;;;;;;6.10;54.98;101868.28;4936176;28;114115;-71
2021/01/14 06:17:08;;;;;;;7.15;1.50;;;;;;;6.09;55.12;101866.53;4917715;28;123962;-70
2021/01/14 06:19:35;;;;;;;5.55;1.30;;;;;;;6.07;55.13;101863.94;4921505;28;122836;-70
2021/01/14 06:22:04;;;;;;;5.63;1.30;;;;;;;6.06;54.91;101869.19;4934974;28;114697;-71
2021/01/14 06:24:36;;;;;;;6.60;1.35;;;;;;;6.08;54.88;101864.78;4928461;28;114481;-71
2021/01/14 06:27:05;;;;;;;6.43;1.38;;;;;;;6.08;54.80;101870.03;4918779;28;123127;-72
2021/01/14 06:29:34;;;;;;;7.47;1.40;;;;;;;6.07;55.13;101873.59;4932074;28;124565;-72
2021/01/14 06:32:12;;;;;;;6.45;1.45;;;;;;;6.09;55.05;101871.81;4917723;28;114474;-70
2021/01/14 06:34:42;;;;;;;9.57;1.55;;;;;;;6.09;54.76;101874.44;4937092;28;114333;-71
2021/01/14 06:37:14;;;;;;;5.47;1.50;;;;;;;6.09;54.89;101871.81;4904589;28;123105;-70
2021/01/14 06:39:44;;;;;;;6.90;1.80;;;;;;;6.10;54.95;101873.53;4935143;28;124391;-71
2021/01/14 06:42:27;;;;;;;5.63;1.70;;;;;;;6.11;54.99;101870.03;4936280;28;114985;-71
2021/01/14 06:44:56;;;;;;;7.97;1.83;;;;;;;6.12;55.11;101877.91;4941379;28;115114;-71
2021/01/14 06:47:31;;;;;;;7.50;1.50;;;;;;;6.12;54.78;101882.28;4941696;28;123753;-71
2021/01/14 06:50:17;;;;;;;7.35;1.60;;;;;;;6.11;55.07;101875.28;4935306;28;124263;-71
2021/01/14 06:52:48;;;;;;;7.30;1.70;;;;;;;6.12;54.96;101877.00;4922293;28;114083;-71
2021/01/14 06:55:23;;;;;;;9.52;1.55;;;;;;;6.12;54.88;101882.28;4921949;28;113286;-71
2021/01/14 06:58:02;;;;;;;7.47;1.77;;;;;;;6.12;55.00;101883.16;4902262;28;123027;-70
2021/01/14 07:00:30;;;;;;;9.20;1.67;;;;;;;6.13;54.94;101879.63;4932539;28;123317;-71
2021/01/14 07:03:23;;;;;;;6.45;2.15;;;;;;;6.12;54.78;101892.78;4916027;28;113396;-71
2021/01/14 07:05:53;;;;;;;6.43;1.80;;;;;;;6.14;54.84;101901.53;4934473;28;114963;-71
2021/01/14 07:08:41;;;;;;;8.25;1.83;;;;;;;6.15;55.18;101895.41;4918090;28;123841;-72
2021/01/14 07:11:19;;;;;;;5.97;1.80;;;;;;;6.13;54.96;101899.81;4918845;28;122696;-72
2021/01/14 07:13:51;;;;;;;8.63;1.50;;;;;;;6.14;54.90;101901.53;4942724;28;114311;-71
2021/01/14 07:16:23;;;;;;;5.82;1.90;;;;;;;6.14;54.68;101912.06;4918773;28;112965;-71
2021/01/14 07:18:51;;;;;;;11.38;1.58;;;;;;;6.14;54.86;101912.06;4945713;28;124127;-70
2021/01/14 07:21:39;;;;;;;10.10;1.77;;;;;;;6.12;54.97;101913.84;4935422;28;123261;-71
2021/01/14 07:24:18;;;;;;;11.60;1.88;;;;;;;6.11;54.97;101912.09;4936727;28;114440;-72
2021/01/14 07:26:47;;;;;;;7.80;1.52;;;;;;;6.11;54.97;101918.22;4918732;28;113984;-71
2021/01/14 07:29:14;;;;;;;11.63;1.90;;;;;;;6.10;54.64;101923.50;4918782;28;123255;-71
2021/01/14 07:31:49;;;;;;;9.30;1.92;;;;;;;6.09;54.96;101934.94;4915432;28;124696;-71
2021/01/14 07:34:43;;;;;;;8.07;2.28;;;;;;;6.09;55.01;101934.94;4935850;28;117202;-70
2021/01/14 07:37:13;;;;;;;9.32;1.90;;;;;;;6.10;54.58;101931.38;4918847;28;113558;-70
2021/01/14 07:39:55;;;;;;;11.85;1.85;;;;;;;6.08;54.76;101934.03;4936566;28;124228;-72
2021/01/14 07:42:27;;;;;;;9.52;1.77;;;;;;;6.07;54.54;101931.44;4916085;28;123179;-71
2021/01/14 07:44:57;;;;;;;7.18;1.98;;;;;;;6.06;54.93;101930.53;4923218;28;113445;-70
2021/01/14 07:47:29;;;;;;;6.88;1.58;;;;;;;6.04;54.71;101927.91;4938303;28;114194;-71
2021/01/14 07:49:58;;;;;;;11.82;2.15;;;;;;;6.05;54.75;101920.94;4930649;28;124342;-70
2021/01/14 07:52:35;;;;;;;6.78;1.75;;;;;;;6.04;54.83;101927.06;4903147;28;123742;-71
2021/01/14 07:55:05;;;;;;;9.63;1.90;;;;;;;6.04;55.18;101930.56;4935758;28;114325;-71
2021/01/14 07:57:41;;;;;;;7.10;1.75;;;;;;;6.02;55.19;101924.44;4933896;28;113939;-71
2021/01/14 08:00:08;;;;;;;10.73;1.88;;;;;;;6.03;54.85;101927.97;4918532;28;124775;-71
2021/01/14 08:03:05;;;;;;;8.65;1.65;;;;;;;6.00;54.99;101931.47;4935510;28;125255;-70
2021/01/14 08:05:59;;;;;;;8.18;1.67;;;;;;;5.98;54.97;101943.75;4937233;28;114563;-71
2021/01/14 08:08:29;;;;;;;5.57;1.75;;;;;;;5.96;54.87;101949.94;4921116;28;112659;-70
2021/01/14 08:11:12;;;;;;;7.55;1.83;;;;;;;5.90;54.92;101945.56;4936364;28;123229;-71
2021/01/14 08:14:08;;;;;;;6.90;2.00;;;;;;;5.90;55.08;101945.56;4918251;28;123987;-71
2021/01/14 08:16:46;;;;;;;7.43;1.55;;;;;;;5.89;55.34;101949.06;4900535;28;113090;-70
2021/01/14 08:19:14;;;;;;;9.23;2.17;;;;;;;5.89;54.93;101954.31;4938682;28;114329;-71
2021/01/14 08:21:58;;;;;;;4.03;1.70;;;;;;;5.86;55.29;101964.88;4937127;28;124187;-71
2021/01/14 08:24:38;;;;;;;10.45;1.88;;;;;;;5.84;55.45;101961.38;4931989;28;124112;-71
2021/01/14 08:27:11;;;;;;;8.23;1.98;;;;;;;5.84;55.57;101966.66;4935409;28;114703;-71
2021/01/14 08:29:54;;;;;;;5.97;1.80;;;;;;;5.80;55.47;101967.53;4936317;28;115070;-70
2021/01/14 08:32:37;;;;;;;11.25;2.25;;;;;;;5.78;55.69;101971.91;4939941;28;123091;-73
2021/01/14 08:35:34;;;;;;;5.85;2.00;;;;;;;5.78;55.65;101982.44;4934150;28;124666;-71
2021/01/14 08:38:03;;;;;;;7.75;1.98;;;;;;;5.78;55.47;101971.91;4939332;28;114528;-71
2021/01/14 08:40:35;;;;;;;6.47;1.85;;;;;;;5.78;55.67;101977.19;4925943;28;113999;-71
2021/01/14 08:43:13;;;;;;;9.38;3.00;;;;;;;5.82;55.78;101978.91;4941558;28;124339;-71
2021/01/14 08:45:47;;;;;;;10.27;2.58;;;;;;;5.82;55.55;101979.78;4934774;28;122892;-71
2021/01/14 08:48:24;;;;;;;8.55;2.42;;;;;;;5.83;55.61;101980.66;4933449;28;114442;-71
2021/01/14 08:50:54;;;;;;;8.98;2.60;;;;;;;5.83;55.94;101985.91;4936930;28;114553;-76
2021/01/14 08:53:25;;;;;;;7.43;2.33;;;;;;;5.82;56.00;101984.16;4953434;28;125037;-71
2021/01/14 08:55:53;;;;;;;13.73;2.05;;;;;;;5.82;56.03;101994.66;4954034;28;124321;-71
2021/01/14 08:58:20;;;;;;;8.02;1.73;;;;;;;5.82;55.91;101992.03;4955612;28;114355;-71
2021/01/14 09:00:48;;;;;;;7.43;2.17;;;;;;;5.82;55.77;101989.41;4938058;28;113629;-71
2021/01/14 09:03:15;;;;;;;6.93;2.00;;;;;;;5.82;55.89;101997.31;4953615;28;124290;-71
2021/01/14 09:05:46;;;;;;;6.13;2.22;;;;;;;5.82;55.67;101999.94;4950391;28;124416;-71
2021/01/14 09:08:16;;;;;;;12.25;2.08;;;;;;;5.84;55.83;101998.19;4950036;28;114925;-72
2021/01/14 09:10:50;;;;;;;11.82;2.30;;;;;;;5.83;56.09;102005.19;4940588;28;114047;-71
2021/01/14 09:13:24;;;;;;;7.68;2.20;;;;;;;5.83;55.91;102013.06;4937074;28;124941;-71
2021/01/14 09:15:54;;;;;;;7.93;2.17;;;;;;;5.85;55.84;102005.19;4930634;28;125068;-71
2021/01/14 09:18:30;;;;;;;14.25;2.20;;;;;;;5.87;55.69;102013.06;4939618;28;115805;-72
2021/01/14 09:20:57;;;;;;;10.50;2.00;;;;;;;5.88;56.21;102005.16;4937347;28;115072;-72
2021/01/14 09:23:35;;;;;;;6.57;2.20;;;;;;;5.88;56.07;102005.16;4932065;28;123459;-72
2021/01/14 09:26:20;;;;;;;9.65;2.10;;;;;;;5.91;56.11;102005.13;4944313;28;123529;-72
2021/01/14 09:28:52;;;;;;;9.90;2.28;;;;;;;5.92;55.80;102012.16;4945315;28;113235;-71
2021/01/14 09:31:20;;;;;;;8.57;2.10;;;;;;;5.93;55.63;102007.75;4933895;28;114272;-71
2021/01/14 09:33:49;;;;;;;5.28;1.90;;;;;;;5.92;56.04;102012.16;4948784;28;124047;-72
2021/01/14 09:36:17;;;;;;;8.50;1.95;;;;;;;5.93;55.68;102008.63;4934432;28;123206;-72
2021/01/14 09:38:52;;;;;;;12.07;2.08;;;;;;;5.94;56.00;102010.38;4947739;28;114760;-71
2021/01/14 09:41:24;;;;;;;3.60;1.80;;;;;;;5.97;55.95;102005.13;4944577;28;115091;-72
2021/01/14 09:44:03;;;;;;;7.18;1.88;;;;;;;5.97;55.81;102010.41;4951771;28;124148;-71
2021/01/14 09:46:34;;;;;;;6.70;1.80;;;;;;;5.98;55.73;102006.88;4937266;28;123229;-71
2021/01/14 09:49:09;;;;;;;6.68;1.83;;;;;;;6.00;55.61;102012.97;4954021;28;114621;-71
2021/01/14 09:51:37;;;;;;;11.05;2.08;;;;;;;6.03;55.74;102010.34;4936008;28;114366;-71
2021/01/14 09:54:09;;;;;;;7.05;1.67;;;;;;;6.02;55.32;102013.84;4953500;28;123958;-71
2021/01/14 09:56:49;;;;;;;8.65;2.17;;;;;;;6.02;55.34;102018.25;4927347;28;122294;-71
2021/01/14 09:59:28;;;;;;;9.27;2.22;;;;;;;6.01;55.27;102017.38;4923385;28;113215;-71
2021/01/14 10:02:02;;;;;;;8.38;1.92;;;;;;;6.02;55.44;102013.84;4953294;28;113816;-71
2021/01/14 10:04:32;;;;;;;6.85;1.83;;;;;;;6.03;55.36;102010.34;4943526;28;124286;-71
2021/01/14 10:07:06;;;;;;;8.57;1.88;;;;;;;6.06;55.71;102003.31;4940806;28;124066;-72
2021/01/14 10:09:34;;;;;;;6.80;1.80;;;;;;;6.10;55.42;102005.03;4936836;28;115203;-72
2021/01/14 10:12:03;;;;;;;7.70;2.00;;;;;;;6.13;55.55;102005.03;4935538;28;115107;-72
2021/01/14 10:14:30;;;;;;;7.40;2.00;;;;;;;6.15;55.25;102008.50;4937054;28;123956;-72
2021/01/14 10:17:08;;;;;;;10.55;2.25;;;;;;;6.18;55.38;102013.75;4941130;28;123720;-72
2021/01/14 10:19:47;;;;;;;13.07;2.13;;;;;;;6.22;55.31;102011.06;4939955;28;114157;-72
2021/01/14 10:22:14;;;;;;;7.93;2.50;;;;;;;6.26;55.19;102011.94;4916635;28;112882;-73
2021/01/14 10:24:41;;;;;;;7.55;2.05;;;;;;;6.29;55.33;102011.91;4933653;28;123783;-71
2021/01/14 10:27:18;;;;;;;8.15;2.20;;;;;;;6.30;55.21;102002.25;4936858;28;124312;-73
2021/01/14 10:29:46;;;;;;;10.60;2.42;;;;;;;6.31;54.71;102004.88;4930927;28;113359;-72
2021/01/14 10:32:15;;;;;;;10.50;2.30;;;;;;;6.31;54.56;101993.44;4949701;28;114844;-71
2021/01/14 10:34:47;;;;;;;8.75;2.20;;;;;;;6.32;55.19;101990.81;4947086;28;124184;-71
2021/01/14 10:37:29;;;;;;;12.43;3.00;;;;;;;6.36;55.22;102005.69;4953348;28;124488;-72
2021/01/14 10:39:58;;;;;;;6.65;2.33;;;;;;;6.39;55.08;101992.50;4947676;28;114392;-72
2021/01/14 10:42:32;;;;;;;10.25;2.83;;;;;;;6.42;55.07;101997.75;4936250;28;112875;-71
2021/01/14 10:45:03;;;;;;;12.13;2.43;;;;;;;6.46;55.07;101984.56;4934864;28;123532;-72
2021/01/14 10:47:30;;;;;;;12.10;2.70;;;;;;;6.46;54.75;101984.56;4953078;28;124254;-72
2021/01/14 10:49:57;;;;;;;8.23;2.25;;;;;;;6.48;54.71;101985.41;4953408;28;114356;-71
2021/01/14 10:52:27;;;;;;;7.88;2.42;;;;;;;6.51;54.87;101980.13;4935718;28;114500;-72
2021/01/14 10:55:00;;;;;;;7.18;2.30;;;;;;;6.53;54.76;101983.63;4950122;28;124065;-71
2021/01/14 10:57:49;;;;;;;8.70;2.35;;;;;;;6.53;54.47;101989.75;4943336;28;123870;-71
2021/01/14 11:00:23;;;;;;;9.07;2.28;;;;;;;6.53;54.36;101989.75;4948769;28;115299;-72
2021/01/14 11:03:10;;;;;;;7.07;2.40;;;;;;;6.53;54.58;101995.00;4950322;28;114797;-70
2021/01/14 11:05:42;;;;;;;8.00;2.50;;;;;;;6.55;54.16;101997.63;4923287;28;123421;-71
2021/01/14 11:08:10;;;;;;;5.25;2.15;;;;;;;6.55;54.45;101992.34;4947242;28;123242;-71
2021/01/14 11:10:37;;;;;;;10.00;2.88;;;;;;;6.57;54.25;101990.59;4935846;28;114652;-71
2021/01/14 11:13:28;;;;;;;9.90;3.17;;;;;;;6.60;54.34;101990.56;4938218;28;113981;-71
2021/01/14 11:15:58;;;;;;;9.52;2.97;;;;;;;6.64;54.12;101981.75;4966821;23;124084;-77
2021/01/14 11:18:24;;;;;;;10.23;3.13;;;;;;;6.66;54.22;101984.38;4947863;28;124132;-77
2021/01/14 11:20:51;;;;;;;7.63;2.92;;;;;;;6.66;53.99;101969.44;4960070;28;115649;-77
2021/01/14 11:23:17;;;;;;;8.05;3.05;;;;;;;6.67;53.94;101976.47;4950883;28;114397;-76
2021/01/14 11:25:44;;;;;;;11.02;3.10;;;;;;;6.69;54.55;101969.41;4938328;28;124228;-78
2021/01/14 11:28:10;;;;;;;9.60;2.97;;;;;;;6.72;54.13;101969.38;4939859;28;124728;-77
2021/01/14 11:30:37;;;;;;;8.45;2.85;;;;;;;6.73;53.86;101960.59;4936179;28;114312;-76
2021/01/14 11:33:04;;;;;;;6.55;3.05;;;;;;;6.73;53.92;101960.59;4936061;28;112122;-77
2021/01/14 11:35:30;;;;;;;10.80;3.13;;;;;;;6.72;53.60;101952.69;4931708;28;122263;-76
2021/01/14 11:37:57;;;;;;;7.40;3.00;;;;;;;6.70;53.67;101957.97;4935614;28;124127;-76
2021/01/14 11:40:25;;;;;;;8.27;2.97;;;;;;;6.71;53.57;101951.84;4928009;28;114588;-77
2021/01/14 11:42:52;;;;;;;6.68;3.17;;;;;;;6.71;53.73;101951.84;4932587;28;113296;-77